sensor_id;sensor_type;location;lat;lon;timestamp;P1;durP1;ratioP1;P2;durP2;ratioP2
29358;SDS011;16347;53.232;6.556;2023-05-07T00:00:49;32.88;;;16.90;;
29358;SDS011;16347;53.232;6.556;2023-05-07T00:03:17;32.55;;;17.83;;
29358;SDS011;16347;53.232;6.556;2023-05-07T00:05:45;29.67;;;16.38;;
29358;SDS011;16347;53.232;6.556;2023-05-07T00:08:15;33.97;;;17.08;;
29358;SDS011;16347;53.232;6.556;2023-05-07T00:10:43;32.75;;;18.05;;
29358;SDS011;16347;53.232;6.556;2023-05-07T00:13:13;29.80;;;18.10;;
29358;SDS011;16347;53.232;6.556;2023-05-07T00:15:41;30.55;;;18.17;;
29358;SDS011;16347;53.232;6.556;2023-05-07T00:18:11;28.58;;;17.90;;
29358;SDS011;16347;53.232;6.556;2023-05-07T00:20:39;28.55;;;17.45;;
29358;SDS011;16347;53.232;6.556;2023-05-07T00:23:08;26.38;;;16.88;;
29358;SDS011;16347;53.232;6.556;2023-05-07T00:25:38;31.63;;;17.42;;
29358;SDS011;16347;53.232;6.556;2023-05-07T00:28:06;32.92;;;18.08;;
29358;SDS011;16347;53.232;6.556;2023-05-07T00:30:34;35.60;;;18.48;;
29358;SDS011;16347;53.232;6.556;2023-05-07T00:33:02;36.15;;;17.65;;
29358;SDS011;16347;53.232;6.556;2023-05-07T00:35:30;32.43;;;18.03;;
29358;SDS011;16347;53.232;6.556;2023-05-07T00:37:59;33.72;;;20.23;;
29358;SDS011;16347;53.232;6.556;2023-05-07T00:40:26;28.38;;;18.48;;
29358;SDS011;16347;53.232;6.556;2023-05-07T00:42:56;33.25;;;18.42;;
29358;SDS011;16347;53.232;6.556;2023-05-07T00:45:25;28.73;;;17.95;;
29358;SDS011;16347;53.232;6.556;2023-05-07T00:47:55;41.22;;;20.33;;
29358;SDS011;16347;53.232;6.556;2023-05-07T00:50:24;35.80;;;21.08;;
29358;SDS011;16347;53.232;6.556;2023-05-07T00:52:53;29.83;;;18.80;;
29358;SDS011;16347;53.232;6.556;2023-05-07T00:55:22;33.38;;;20.75;;
29358;SDS011;16347;53.232;6.556;2023-05-07T00:57:51;30.35;;;17.83;;
29358;SDS011;16347;53.232;6.556;2023-05-07T01:00:20;37.38;;;21.33;;
29358;SDS011;16347;53.232;6.556;2023-05-07T01:02:49;34.35;;;20.65;;
29358;SDS011;16347;53.232;6.556;2023-05-07T01:05:18;34.97;;;20.55;;
29358;SDS011;16347;53.232;6.556;2023-05-07T01:07:48;35.80;;;21.00;;
29358;SDS011;16347;53.232;6.556;2023-05-07T01:10:19;36.40;;;20.55;;
29358;SDS011;16347;53.232;6.556;2023-05-07T01:12:47;35.92;;;19.67;;
29358;SDS011;16347;53.232;6.556;2023-05-07T01:15:17;35.70;;;20.13;;
29358;SDS011;16347;53.232;6.556;2023-05-07T01:17:47;34.80;;;19.58;;
29358;SDS011;16347;53.232;6.556;2023-05-07T01:20:20;37.35;;;21.23;;
29358;SDS011;16347;53.232;6.556;2023-05-07T01:22:54;36.53;;;21.80;;
29358;SDS011;16347;53.232;6.556;2023-05-07T01:25:22;34.72;;;19.55;;
29358;SDS011;16347;53.232;6.556;2023-05-07T01:27:53;32.88;;;20.70;;
29358;SDS011;16347;53.232;6.556;2023-05-07T01:30:25;34.63;;;21.77;;
29358;SDS011;16347;53.232;6.556;2023-05-07T01:32:56;39.40;;;22.58;;
29358;SDS011;16347;53.232;6.556;2023-05-07T01:35:29;32.95;;;19.95;;
29358;SDS011;16347;53.232;6.556;2023-05-07T01:38:03;39.33;;;22.50;;
29358;SDS011;16347;53.232;6.556;2023-05-07T01:40:32;35.33;;;22.15;;
29358;SDS011;16347;53.232;6.556;2023-05-07T01:43:02;36.97;;;21.92;;
29358;SDS011;16347;53.232;6.556;2023-05-07T01:45:32;39.53;;;21.45;;
29358;SDS011;16347;53.232;6.556;2023-05-07T01:48:02;31.13;;;20.05;;
29358;SDS011;16347;53.232;6.556;2023-05-07T01:50:31;29.83;;;19.55;;
29358;SDS011;16347;53.232;6.556;2023-05-07T01:53:03;33.25;;;20.60;;
29358;SDS011;16347;53.232;6.556;2023-05-07T01:55:31;31.65;;;19.73;;
29358;SDS011;16347;53.232;6.556;2023-05-07T01:57:59;30.88;;;19.95;;
29358;SDS011;16347;53.232;6.556;2023-05-07T02:00:27;33.55;;;20.05;;
29358;SDS011;16347;53.232;6.556;2023-05-07T02:02:57;34.55;;;20.25;;
29358;SDS011;16347;53.232;6.556;2023-05-07T02:05:45;30.77;;;18.80;;
29358;SDS011;16347;53.232;6.556;2023-05-07T02:08:29;34.85;;;20.55;;
29358;SDS011;16347;53.232;6.556;2023-05-07T02:10:57;35.35;;;20.30;;
29358;SDS011;16347;53.232;6.556;2023-05-07T02:13:28;35.60;;;21.73;;
29358;SDS011;16347;53.232;6.556;2023-05-07T02:15:57;34.38;;;20.40;;
29358;SDS011;16347;53.232;6.556;2023-05-07T02:18:27;33.85;;;19.27;;
29358;SDS011;16347;53.232;6.556;2023-05-07T02:20:55;33.50;;;20.80;;
29358;SDS011;16347;53.232;6.556;2023-05-07T02:23:23;32.75;;;19.10;;
29358;SDS011;16347;53.232;6.556;2023-05-07T02:25:52;33.00;;;20.00;;
29358;SDS011;16347;53.232;6.556;2023-05-07T02:28:21;35.47;;;21.92;;
29358;SDS011;16347;53.232;6.556;2023-05-07T02:31:00;37.45;;;20.42;;
29358;SDS011;16347;53.232;6.556;2023-05-07T02:33:31;32.97;;;19.33;;
29358;SDS011;16347;53.232;6.556;2023-05-07T02:36:05;35.33;;;21.23;;
29358;SDS011;16347;53.232;6.556;2023-05-07T02:38:36;32.90;;;20.92;;
29358;SDS011;16347;53.232;6.556;2023-05-07T02:41:05;34.53;;;20.17;;
29358;SDS011;16347;53.232;6.556;2023-05-07T02:43:33;38.72;;;21.30;;
29358;SDS011;16347;53.232;6.556;2023-05-07T02:46:02;32.72;;;20.45;;
29358;SDS011;16347;53.232;6.556;2023-05-07T02:48:32;35.42;;;22.67;;
29358;SDS011;16347;53.232;6.556;2023-05-07T02:51:02;39.75;;;24.08;;
29358;SDS011;16347;53.232;6.556;2023-05-07T02:53:32;41.35;;;24.67;;
29358;SDS011;16347;53.232;6.556;2023-05-07T02:56:00;37.90;;;23.08;;
29358;SDS011;16347;53.232;6.556;2023-05-07T02:58:30;41.15;;;22.63;;
29358;SDS011;16347;53.232;6.556;2023-05-07T03:01:00;37.78;;;23.27;;
29358;SDS011;16347;53.232;6.556;2023-05-07T03:03:33;33.67;;;21.02;;
29358;SDS011;16347;53.232;6.556;2023-05-07T03:06:01;33.85;;;21.63;;
29358;SDS011;16347;53.232;6.556;2023-05-07T03:08:29;35.53;;;22.25;;
29358;SDS011;16347;53.232;6.556;2023-05-07T03:10:57;32.28;;;21.05;;
29358;SDS011;16347;53.232;6.556;2023-05-07T03:13:26;36.65;;;23.77;;
29358;SDS011;16347;53.232;6.556;2023-05-07T03:15:56;36.65;;;22.88;;
29358;SDS011;16347;53.232;6.556;2023-05-07T03:18:24;35.63;;;21.58;;
29358;SDS011;16347;53.232;6.556;2023-05-07T03:20:52;37.78;;;21.52;;
29358;SDS011;16347;53.232;6.556;2023-05-07T03:23:20;36.08;;;23.10;;
29358;SDS011;16347;53.232;6.556;2023-05-07T03:25:50;33.63;;;21.00;;
29358;SDS011;16347;53.232;6.556;2023-05-07T03:28:18;38.60;;;22.17;;
29358;SDS011;16347;53.232;6.556;2023-05-07T03:30:52;37.08;;;21.33;;
29358;SDS011;16347;53.232;6.556;2023-05-07T03:33:23;34.42;;;21.55;;
29358;SDS011;16347;53.232;6.556;2023-05-07T03:35:51;38.38;;;21.17;;
29358;SDS011;16347;53.232;6.556;2023-05-07T03:38:23;36.47;;;22.27;;
29358;SDS011;16347;53.232;6.556;2023-05-07T03:40:51;35.58;;;22.10;;
29358;SDS011;16347;53.232;6.556;2023-05-07T03:43:19;36.08;;;22.55;;
29358;SDS011;16347;53.232;6.556;2023-05-07T03:45:55;38.15;;;21.77;;
29358;SDS011;16347;53.232;6.556;2023-05-07T03:48:27;37.92;;;21.77;;
29358;SDS011;16347;53.232;6.556;2023-05-07T03:50:57;35.45;;;21.60;;
29358;SDS011;16347;53.232;6.556;2023-05-07T03:53:29;36.08;;;21.50;;
29358;SDS011;16347;53.232;6.556;2023-05-07T03:55:57;38.42;;;22.20;;
29358;SDS011;16347;53.232;6.556;2023-05-07T03:58:26;35.85;;;22.27;;
29358;SDS011;16347;53.232;6.556;2023-05-07T04:00:57;35.65;;;21.63;;
29358;SDS011;16347;53.232;6.556;2023-05-07T04:03:28;35.90;;;22.20;;
29358;SDS011;16347;53.232;6.556;2023-05-07T04:05:58;35.55;;;21.52;;
29358;SDS011;16347;53.232;6.556;2023-05-07T04:08:26;32.58;;;20.90;;
29358;SDS011;16347;53.232;6.556;2023-05-07T04:10:54;38.10;;;22.63;;
29358;SDS011;16347;53.232;6.556;2023-05-07T04:13:25;38.47;;;21.42;;
29358;SDS011;16347;53.232;6.556;2023-05-07T04:15:54;37.90;;;23.02;;
29358;SDS011;16347;53.232;6.556;2023-05-07T04:18:24;40.42;;;22.90;;
29358;SDS011;16347;53.232;6.556;2023-05-07T04:20:54;37.42;;;22.75;;
29358;SDS011;16347;53.232;6.556;2023-05-07T04:23:22;41.17;;;24.23;;
29358;SDS011;16347;53.232;6.556;2023-05-07T04:25:50;39.55;;;23.02;;
29358;SDS011;16347;53.232;6.556;2023-05-07T04:28:23;40.92;;;23.52;;
29358;SDS011;16347;53.232;6.556;2023-05-07T04:30:52;42.00;;;23.50;;
29358;SDS011;16347;53.232;6.556;2023-05-07T04:33:22;37.17;;;21.67;;
29358;SDS011;16347;53.232;6.556;2023-05-07T04:35:57;33.45;;;21.10;;
29358;SDS011;16347;53.232;6.556;2023-05-07T04:38:30;37.33;;;22.10;;
29358;SDS011;16347;53.232;6.556;2023-05-07T04:41:02;37.95;;;21.63;;
29358;SDS011;16347;53.232;6.556;2023-05-07T04:43:34;36.70;;;21.95;;
29358;SDS011;16347;53.232;6.556;2023-05-07T04:46:02;40.35;;;20.60;;
29358;SDS011;16347;53.232;6.556;2023-05-07T04:48:32;34.03;;;21.85;;
29358;SDS011;16347;53.232;6.556;2023-05-07T04:51:04;35.58;;;20.25;;
29358;SDS011;16347;53.232;6.556;2023-05-07T04:53:33;33.83;;;20.85;;
29358;SDS011;16347;53.232;6.556;2023-05-07T04:56:01;35.63;;;19.75;;
29358;SDS011;16347;53.232;6.556;2023-05-07T04:58:36;33.22;;;20.13;;
29358;SDS011;16347;53.232;6.556;2023-05-07T05:01:06;38.13;;;21.45;;
29358;SDS011;16347;53.232;6.556;2023-05-07T05:03:34;34.42;;;19.73;;
29358;SDS011;16347;53.232;6.556;2023-05-07T05:06:02;33.97;;;20.45;;
29358;SDS011;16347;53.232;6.556;2023-05-07T05:08:34;33.17;;;19.38;;
29358;SDS011;16347;53.232;6.556;2023-05-07T05:11:03;33.58;;;19.20;;
29358;SDS011;16347;53.232;6.556;2023-05-07T05:13:33;35.10;;;21.90;;
29358;SDS011;16347;53.232;6.556;2023-05-07T05:16:08;31.05;;;20.08;;
29358;SDS011;16347;53.232;6.556;2023-05-07T05:18:37;30.25;;;18.48;;
29358;SDS011;16347;53.232;6.556;2023-05-07T05:21:05;31.58;;;18.92;;
29358;SDS011;16347;53.232;6.556;2023-05-07T05:23:34;33.45;;;19.42;;
29358;SDS011;16347;53.232;6.556;2023-05-07T05:26:02;32.65;;;19.67;;
29358;SDS011;16347;53.232;6.556;2023-05-07T05:28:32;32.95;;;18.77;;
29358;SDS011;16347;53.232;6.556;2023-05-07T05:31:01;35.42;;;19.30;;
29358;SDS011;16347;53.232;6.556;2023-05-07T05:33:33;29.92;;;19.48;;
29358;SDS011;16347;53.232;6.556;2023-05-07T05:36:03;30.40;;;18.63;;
29358;SDS011;16347;53.232;6.556;2023-05-07T05:38:32;33.10;;;19.45;;
29358;SDS011;16347;53.232;6.556;2023-05-07T05:41:02;34.05;;;19.08;;
29358;SDS011;16347;53.232;6.556;2023-05-07T05:43:30;27.02;;;17.55;;
29358;SDS011;16347;53.232;6.556;2023-05-07T05:45:59;28.70;;;18.17;;
29358;SDS011;16347;53.232;6.556;2023-05-07T05:48:28;33.40;;;20.05;;
29358;SDS011;16347;53.232;6.556;2023-05-07T05:50:58;33.63;;;19.25;;
29358;SDS011;16347;53.232;6.556;2023-05-07T05:53:27;29.92;;;19.50;;
29358;SDS011;16347;53.232;6.556;2023-05-07T05:55:56;29.80;;;18.55;;
29358;SDS011;16347;53.232;6.556;2023-05-07T05:58:25;30.60;;;19.17;;
29358;SDS011;16347;53.232;6.556;2023-05-07T06:00:58;30.85;;;17.83;;
29358;SDS011;16347;53.232;6.556;2023-05-07T06:03:29;28.73;;;17.75;;
29358;SDS011;16347;53.232;6.556;2023-05-07T06:06:01;30.08;;;18.20;;
29358;SDS011;16347;53.232;6.556;2023-05-07T06:08:30;28.83;;;18.02;;
29358;SDS011;16347;53.232;6.556;2023-05-07T06:10:59;28.90;;;17.85;;
29358;SDS011;16347;53.232;6.556;2023-05-07T06:13:33;26.30;;;16.40;;
29358;SDS011;16347;53.232;6.556;2023-05-07T06:16:01;31.33;;;19.40;;
29358;SDS011;16347;53.232;6.556;2023-05-07T06:18:29;29.23;;;17.77;;
29358;SDS011;16347;53.232;6.556;2023-05-07T06:20:57;29.55;;;18.27;;
29358;SDS011;16347;53.232;6.556;2023-05-07T06:23:29;29.17;;;18.33;;
29358;SDS011;16347;53.232;6.556;2023-05-07T06:25:58;29.85;;;18.10;;
29358;SDS011;16347;53.232;6.556;2023-05-07T06:28:33;28.08;;;17.70;;
29358;SDS011;16347;53.232;6.556;2023-05-07T06:31:11;31.05;;;18.98;;
29358;SDS011;16347;53.232;6.556;2023-05-07T06:33:41;31.25;;;19.75;;
29358;SDS011;16347;53.232;6.556;2023-05-07T06:36:10;29.70;;;20.00;;
29358;SDS011;16347;53.232;6.556;2023-05-07T06:38:38;29.35;;;19.83;;
29358;SDS011;16347;53.232;6.556;2023-05-07T06:41:06;33.88;;;22.48;;
29358;SDS011;16347;53.232;6.556;2023-05-07T06:43:38;37.92;;;23.58;;
29358;SDS011;16347;53.232;6.556;2023-05-07T06:46:23;37.97;;;22.02;;
29358;SDS011;16347;53.232;6.556;2023-05-07T06:48:51;35.15;;;23.05;;
29358;SDS011;16347;53.232;6.556;2023-05-07T06:51:19;30.42;;;21.17;;
29358;SDS011;16347;53.232;6.556;2023-05-07T06:53:47;33.25;;;22.13;;
29358;SDS011;16347;53.232;6.556;2023-05-07T06:56:15;33.40;;;20.27;;
29358;SDS011;16347;53.232;6.556;2023-05-07T06:58:44;35.10;;;21.00;;
29358;SDS011;16347;53.232;6.556;2023-05-07T07:01:13;32.50;;;19.73;;
29358;SDS011;16347;53.232;6.556;2023-05-07T07:03:42;32.55;;;20.08;;
29358;SDS011;16347;53.232;6.556;2023-05-07T07:06:10;31.98;;;19.08;;
29358;SDS011;16347;53.232;6.556;2023-05-07T07:08:38;32.50;;;20.67;;
29358;SDS011;16347;53.232;6.556;2023-05-07T07:11:06;28.75;;;18.33;;
29358;SDS011;16347;53.232;6.556;2023-05-07T07:13:36;29.95;;;18.75;;
29358;SDS011;16347;53.232;6.556;2023-05-07T07:16:05;31.52;;;18.33;;
29358;SDS011;16347;53.232;6.556;2023-05-07T07:18:34;31.42;;;18.70;;
29358;SDS011;16347;53.232;6.556;2023-05-07T07:21:03;32.88;;;19.67;;
29358;SDS011;16347;53.232;6.556;2023-05-07T07:23:31;32.97;;;19.63;;
29358;SDS011;16347;53.232;6.556;2023-05-07T07:25:59;32.85;;;18.17;;
29358;SDS011;16347;53.232;6.556;2023-05-07T07:28:27;30.05;;;18.60;;
29358;SDS011;16347;53.232;6.556;2023-05-07T07:30:55;30.50;;;17.83;;
29358;SDS011;16347;53.232;6.556;2023-05-07T07:33:25;35.22;;;19.05;;
29358;SDS011;16347;53.232;6.556;2023-05-07T07:35:53;29.02;;;18.52;;
29358;SDS011;16347;53.232;6.556;2023-05-07T07:38:21;30.65;;;19.65;;
29358;SDS011;16347;53.232;6.556;2023-05-07T07:40:48;32.60;;;19.63;;
29358;SDS011;16347;53.232;6.556;2023-05-07T07:43:17;40.50;;;19.52;;
29358;SDS011;16347;53.232;6.556;2023-05-07T07:45:45;29.20;;;18.10;;
29358;SDS011;16347;53.232;6.556;2023-05-07T07:48:13;33.88;;;19.15;;
29358;SDS011;16347;53.232;6.556;2023-05-07T07:50:43;32.17;;;18.92;;
29358;SDS011;16347;53.232;6.556;2023-05-07T07:53:14;32.27;;;20.57;;
29358;SDS011;16347;53.232;6.556;2023-05-07T07:55:42;30.73;;;19.00;;
29358;SDS011;16347;53.232;6.556;2023-05-07T07:58:13;33.05;;;19.75;;
29358;SDS011;16347;53.232;6.556;2023-05-07T08:00:41;33.03;;;20.10;;
29358;SDS011;16347;53.232;6.556;2023-05-07T08:03:10;31.80;;;20.38;;
29358;SDS011;16347;53.232;6.556;2023-05-07T08:05:44;33.60;;;18.77;;
29358;SDS011;16347;53.232;6.556;2023-05-07T08:08:12;38.30;;;19.70;;
29358;SDS011;16347;53.232;6.556;2023-05-07T08:10:42;36.60;;;19.38;;
29358;SDS011;16347;53.232;6.556;2023-05-07T08:13:18;34.63;;;20.52;;
29358;SDS011;16347;53.232;6.556;2023-05-07T08:15:46;31.15;;;19.83;;
29358;SDS011;16347;53.232;6.556;2023-05-07T08:18:15;34.28;;;20.63;;
29358;SDS011;16347;53.232;6.556;2023-05-07T08:20:45;38.83;;;20.25;;
29358;SDS011;16347;53.232;6.556;2023-05-07T08:23:19;34.97;;;21.33;;
29358;SDS011;16347;53.232;6.556;2023-05-07T08:25:47;32.22;;;20.50;;
29358;SDS011;16347;53.232;6.556;2023-05-07T08:28:17;30.85;;;19.73;;
29358;SDS011;16347;53.232;6.556;2023-05-07T08:30:46;35.10;;;20.15;;
29358;SDS011;16347;53.232;6.556;2023-05-07T08:33:14;30.08;;;19.65;;
29358;SDS011;16347;53.232;6.556;2023-05-07T08:35:43;33.97;;;19.60;;
29358;SDS011;16347;53.232;6.556;2023-05-07T08:38:14;31.85;;;20.30;;
29358;SDS011;16347;53.232;6.556;2023-05-07T08:40:42;31.65;;;19.02;;
29358;SDS011;16347;53.232;6.556;2023-05-07T08:43:15;35.30;;;20.77;;
29358;SDS011;16347;53.232;6.556;2023-05-07T08:45:45;29.83;;;18.33;;
29358;SDS011;16347;53.232;6.556;2023-05-07T08:48:18;34.08;;;20.10;;
29358;SDS011;16347;53.232;6.556;2023-05-07T08:51:02;34.65;;;20.02;;
29358;SDS011;16347;53.232;6.556;2023-05-07T08:53:32;33.97;;;20.27;;
29358;SDS011;16347;53.232;6.556;2023-05-07T08:56:01;32.22;;;18.85;;
29358;SDS011;16347;53.232;6.556;2023-05-07T08:58:31;35.58;;;19.65;;
29358;SDS011;16347;53.232;6.556;2023-05-07T09:00:59;35.58;;;20.40;;
29358;SDS011;16347;53.232;6.556;2023-05-07T09:03:30;34.42;;;20.52;;
29358;SDS011;16347;53.232;6.556;2023-05-07T09:05:59;33.45;;;20.45;;
29358;SDS011;16347;53.232;6.556;2023-05-07T09:08:28;30.95;;;20.08;;
29358;SDS011;16347;53.232;6.556;2023-05-07T09:11:01;34.03;;;21.30;;
29358;SDS011;16347;53.232;6.556;2023-05-07T09:13:29;33.83;;;19.70;;
29358;SDS011;16347;53.232;6.556;2023-05-07T09:16:09;29.52;;;19.02;;
29358;SDS011;16347;53.232;6.556;2023-05-07T09:18:43;34.85;;;19.60;;
29358;SDS011;16347;53.232;6.556;2023-05-07T09:21:14;33.75;;;19.67;;
29358;SDS011;16347;53.232;6.556;2023-05-07T09:23:44;36.13;;;20.60;;
29358;SDS011;16347;53.232;6.556;2023-05-07T09:26:14;34.22;;;20.65;;
29358;SDS011;16347;53.232;6.556;2023-05-07T09:28:43;34.75;;;21.40;;
29358;SDS011;16347;53.232;6.556;2023-05-07T09:31:13;39.20;;;21.67;;
29358;SDS011;16347;53.232;6.556;2023-05-07T09:33:42;33.53;;;21.27;;
29358;SDS011;16347;53.232;6.556;2023-05-07T09:36:12;32.65;;;19.80;;
29358;SDS011;16347;53.232;6.556;2023-05-07T09:38:40;33.72;;;21.02;;
29358;SDS011;16347;53.232;6.556;2023-05-07T09:41:09;35.22;;;19.67;;
29358;SDS011;16347;53.232;6.556;2023-05-07T09:43:53;33.75;;;19.83;;
29358;SDS011;16347;53.232;6.556;2023-05-07T09:46:30;32.22;;;20.50;;
29358;SDS011;16347;53.232;6.556;2023-05-07T09:49:04;34.20;;;20.15;;
29358;SDS011;16347;53.232;6.556;2023-05-07T09:51:38;35.25;;;20.23;;
29358;SDS011;16347;53.232;6.556;2023-05-07T09:54:10;34.15;;;19.83;;
29358;SDS011;16347;53.232;6.556;2023-05-07T09:56:42;35.53;;;19.88;;
29358;SDS011;16347;53.232;6.556;2023-05-07T09:59:14;35.88;;;19.42;;
29358;SDS011;16347;53.232;6.556;2023-05-07T10:01:44;29.33;;;19.70;;
29358;SDS011;16347;53.232;6.556;2023-05-07T10:04:13;32.67;;;19.90;;
29358;SDS011;16347;53.232;6.556;2023-05-07T10:06:44;34.15;;;19.15;;
29358;SDS011;16347;53.232;6.556;2023-05-07T10:09:12;36.30;;;20.42;;
29358;SDS011;16347;53.232;6.556;2023-05-07T10:11:42;30.70;;;19.27;;
29358;SDS011;16347;53.232;6.556;2023-05-07T10:14:11;34.90;;;19.48;;
29358;SDS011;16347;53.232;6.556;2023-05-07T10:16:42;30.52;;;18.42;;
29358;SDS011;16347;53.232;6.556;2023-05-07T10:19:15;33.90;;;20.15;;
29358;SDS011;16347;53.232;6.556;2023-05-07T10:21:48;30.23;;;19.23;;
29358;SDS011;16347;53.232;6.556;2023-05-07T10:24:25;31.50;;;19.20;;
29358;SDS011;16347;53.232;6.556;2023-05-07T10:26:55;33.75;;;19.23;;
29358;SDS011;16347;53.232;6.556;2023-05-07T10:29:31;30.20;;;19.00;;
29358;SDS011;16347;53.232;6.556;2023-05-07T10:32:10;28.52;;;17.45;;
29358;SDS011;16347;53.232;6.556;2023-05-07T10:34:53;30.85;;;19.45;;
29358;SDS011;16347;53.232;6.556;2023-05-07T10:37:25;26.90;;;17.65;;
29358;SDS011;16347;53.232;6.556;2023-05-07T10:39:54;27.25;;;18.10;;
29358;SDS011;16347;53.232;6.556;2023-05-07T10:42:22;30.30;;;18.75;;
29358;SDS011;16347;53.232;6.556;2023-05-07T10:44:54;32.20;;;18.42;;
29358;SDS011;16347;53.232;6.556;2023-05-07T10:47:27;31.08;;;18.17;;
29358;SDS011;16347;53.232;6.556;2023-05-07T10:56:25;28.67;;;17.15;;
29358;SDS011;16347;53.232;6.556;2023-05-07T11:02:14;24.98;;;17.15;;
29358;SDS011;16347;53.232;6.556;2023-05-07T11:05:18;28.85;;;18.20;;
29358;SDS011;16347;53.232;6.556;2023-05-07T11:07:56;25.20;;;17.50;;
29358;SDS011;16347;53.232;6.556;2023-05-07T11:10:48;25.10;;;16.77;;
29358;SDS011;16347;53.232;6.556;2023-05-07T11:13:42;27.40;;;17.63;;
29358;SDS011;16347;53.232;6.556;2023-05-07T11:16:22;26.98;;;17.15;;
29358;SDS011;16347;53.232;6.556;2023-05-07T11:19:05;26.15;;;17.60;;
29358;SDS011;16347;53.232;6.556;2023-05-07T11:21:40;25.50;;;16.38;;
29358;SDS011;16347;53.232;6.556;2023-05-07T11:24:37;27.80;;;17.33;;
29358;SDS011;16347;53.232;6.556;2023-05-07T11:27:07;28.08;;;16.65;;
29358;SDS011;16347;53.232;6.556;2023-05-07T11:29:36;27.35;;;17.98;;
29358;SDS011;16347;53.232;6.556;2023-05-07T11:32:08;28.00;;;16.17;;
29358;SDS011;16347;53.232;6.556;2023-05-07T11:34:44;23.45;;;15.73;;
29358;SDS011;16347;53.232;6.556;2023-05-07T11:37:16;24.65;;;14.70;;
29358;SDS011;16347;53.232;6.556;2023-05-07T11:40:02;24.83;;;15.98;;
29358;SDS011;16347;53.232;6.556;2023-05-07T11:42:35;22.50;;;14.38;;
29358;SDS011;16347;53.232;6.556;2023-05-07T11:45:06;21.52;;;14.70;;
29358;SDS011;16347;53.232;6.556;2023-05-07T11:47:36;23.35;;;15.90;;
29358;SDS011;16347;53.232;6.556;2023-05-07T11:50:09;25.88;;;17.67;;
29358;SDS011;16347;53.232;6.556;2023-05-07T11:52:37;23.33;;;16.17;;
29358;SDS011;16347;53.232;6.556;2023-05-07T11:55:06;25.10;;;15.32;;
29358;SDS011;16347;53.232;6.556;2023-05-07T11:57:35;21.60;;;15.32;;
29358;SDS011;16347;53.232;6.556;2023-05-07T12:00:03;24.85;;;16.65;;
29358;SDS011;16347;53.232;6.556;2023-05-07T12:02:41;22.55;;;15.27;;
29358;SDS011;16347;53.232;6.556;2023-05-07T12:05:10;20.52;;;14.75;;
29358;SDS011;16347;53.232;6.556;2023-05-07T12:07:39;23.63;;;16.05;;
29358;SDS011;16347;53.232;6.556;2023-05-07T12:10:07;19.13;;;13.70;;
29358;SDS011;16347;53.232;6.556;2023-05-07T12:12:39;20.33;;;15.63;;
29358;SDS011;16347;53.232;6.556;2023-05-07T12:15:09;23.75;;;15.70;;
29358;SDS011;16347;53.232;6.556;2023-05-07T12:17:37;21.27;;;13.65;;
29358;SDS011;16347;53.232;6.556;2023-05-07T12:20:07;18.55;;;13.65;;
29358;SDS011;16347;53.232;6.556;2023-05-07T12:22:37;20.75;;;14.52;;
29358;SDS011;16347;53.232;6.556;2023-05-07T12:25:06;20.42;;;13.68;;
29358;SDS011;16347;53.232;6.556;2023-05-07T12:27:36;20.15;;;14.63;;
29358;SDS011;16347;53.232;6.556;2023-05-07T12:30:05;21.90;;;15.32;;
29358;SDS011;16347;53.232;6.556;2023-05-07T12:32:36;19.02;;;13.93;;
29358;SDS011;16347;53.232;6.556;2023-05-07T12:35:05;17.80;;;13.13;;
29358;SDS011;16347;53.232;6.556;2023-05-07T12:37:35;20.17;;;14.00;;
29358;SDS011;16347;53.232;6.556;2023-05-07T12:40:05;22.38;;;14.10;;
29358;SDS011;16347;53.232;6.556;2023-05-07T12:42:35;20.35;;;14.80;;
29358;SDS011;16347;53.232;6.556;2023-05-07T12:45:07;19.15;;;13.23;;
29358;SDS011;16347;53.232;6.556;2023-05-07T12:47:36;17.90;;;13.27;;
29358;SDS011;16347;53.232;6.556;2023-05-07T12:50:05;19.42;;;12.98;;
29358;SDS011;16347;53.232;6.556;2023-05-07T12:52:34;17.77;;;13.82;;
29358;SDS011;16347;53.232;6.556;2023-05-07T12:55:05;20.80;;;14.52;;
29358;SDS011;16347;53.232;6.556;2023-05-07T12:57:38;18.95;;;13.35;;
29358;SDS011;16347;53.232;6.556;2023-05-07T13:00:07;19.77;;;13.75;;
29358;SDS011;16347;53.232;6.556;2023-05-07T13:02:37;22.88;;;14.60;;
29358;SDS011;16347;53.232;6.556;2023-05-07T13:05:07;22.60;;;14.10;;
29358;SDS011;16347;53.232;6.556;2023-05-07T13:07:36;18.20;;;13.13;;
29358;SDS011;16347;53.232;6.556;2023-05-07T13:10:06;20.95;;;13.32;;
29358;SDS011;16347;53.232;6.556;2023-05-07T13:12:35;18.08;;;13.20;;
29358;SDS011;16347;53.232;6.556;2023-05-07T13:15:06;20.50;;;12.82;;
29358;SDS011;16347;53.232;6.556;2023-05-07T13:17:35;19.55;;;12.10;;
29358;SDS011;16347;53.232;6.556;2023-05-07T13:20:04;19.75;;;13.55;;
29358;SDS011;16347;53.232;6.556;2023-05-07T13:22:34;17.08;;;12.77;;
29358;SDS011;16347;53.232;6.556;2023-05-07T13:25:03;15.80;;;11.48;;
29358;SDS011;16347;53.232;6.556;2023-05-07T13:27:33;16.45;;;12.35;;
29358;SDS011;16347;53.232;6.556;2023-05-07T13:30:03;19.05;;;12.95;;
29358;SDS011;16347;53.232;6.556;2023-05-07T13:32:33;21.95;;;13.70;;
29358;SDS011;16347;53.232;6.556;2023-05-07T13:35:01;17.60;;;12.48;;
29358;SDS011;16347;53.232;6.556;2023-05-07T13:37:30;17.35;;;12.20;;
29358;SDS011;16347;53.232;6.556;2023-05-07T13:39:57;16.15;;;12.90;;
29358;SDS011;16347;53.232;6.556;2023-05-07T13:42:25;16.00;;;11.60;;
29358;SDS011;16347;53.232;6.556;2023-05-07T13:44:55;17.50;;;12.32;;
29358;SDS011;16347;53.232;6.556;2023-05-07T13:47:23;20.02;;;13.05;;
29358;SDS011;16347;53.232;6.556;2023-05-07T13:49:52;21.70;;;12.75;;
29358;SDS011;16347;53.232;6.556;2023-05-07T13:52:20;17.92;;;11.65;;
29358;SDS011;16347;53.232;6.556;2023-05-07T13:54:48;19.85;;;11.80;;
29358;SDS011;16347;53.232;6.556;2023-05-07T13:57:18;15.95;;;11.85;;
29358;SDS011;16347;53.232;6.556;2023-05-07T13:59:46;14.90;;;10.68;;
29358;SDS011;16347;53.232;6.556;2023-05-07T14:02:16;17.17;;;12.10;;
29358;SDS011;16347;53.232;6.556;2023-05-07T14:04:44;16.70;;;13.00;;
29358;SDS011;16347;53.232;6.556;2023-05-07T14:07:12;18.30;;;12.10;;
29358;SDS011;16347;53.232;6.556;2023-05-07T14:09:40;13.50;;;10.13;;
29358;SDS011;16347;53.232;6.556;2023-05-07T14:12:08;17.90;;;12.30;;
29358;SDS011;16347;53.232;6.556;2023-05-07T14:14:36;17.52;;;11.73;;
29358;SDS011;16347;53.232;6.556;2023-05-07T14:17:04;19.92;;;12.52;;
29358;SDS011;16347;53.232;6.556;2023-05-07T14:19:33;21.10;;;13.90;;
29358;SDS011;16347;53.232;6.556;2023-05-07T14:22:01;21.13;;;14.55;;
29358;SDS011;16347;53.232;6.556;2023-05-07T14:24:29;21.10;;;13.07;;
29358;SDS011;16347;53.232;6.556;2023-05-07T14:27:04;22.33;;;12.43;;
29358;SDS011;16347;53.232;6.556;2023-05-07T14:29:32;14.75;;;11.25;;
29358;SDS011;16347;53.232;6.556;2023-05-07T14:32:02;13.30;;;10.18;;
29358;SDS011;16347;53.232;6.556;2023-05-07T14:34:31;13.57;;;10.25;;
29358;SDS011;16347;53.232;6.556;2023-05-07T14:37:02;15.70;;;10.55;;
29358;SDS011;16347;53.232;6.556;2023-05-07T14:39:33;14.45;;;11.75;;
29358;SDS011;16347;53.232;6.556;2023-05-07T14:42:02;15.68;;;11.48;;
29358;SDS011;16347;53.232;6.556;2023-05-07T14:44:41;18.00;;;11.93;;
29358;SDS011;16347;53.232;6.556;2023-05-07T14:47:12;28.95;;;14.48;;
29358;SDS011;16347;53.232;6.556;2023-05-07T14:49:42;19.88;;;12.25;;